sensor_id;sensor_type;location;lat;lon;timestamp;temperature;humidity
23124;DHT22;11731;48.592;8.858;2023-07-22T00:00:24;15.90;99.90
23124;DHT22;11731;48.592;8.858;2023-07-22T00:02:51;15.70;99.90
23124;DHT22;11731;48.592;8.858;2023-07-22T00:05:18;15.70;99.90
23124;DHT22;11731;48.592;8.858;2023-07-22T00:07:50;15.50;99.90
23124;DHT22;11731;48.592;8.858;2023-07-22T00:10:18;15.60;99.90
23124;DHT22;11731;48.592;8.858;2023-07-22T00:12:45;15.80;99.90
23124;DHT22;11731;48.592;8.858;2023-07-22T00:15:12;15.90;99.90
23124;DHT22;11731;48.592;8.858;2023-07-22T00:17:40;15.90;99.90
23124;DHT22;11731;48.592;8.858;2023-07-22T00:20:08;15.90;99.90
23124;DHT22;11731;48.592;8.858;2023-07-22T00:22:37;15.80;99.90
23124;DHT22;11731;48.592;8.858;2023-07-22T00:25:07;15.70;99.90
23124;DHT22;11731;48.592;8.858;2023-07-22T00:27:36;15.70;99.90
23124;DHT22;11731;48.592;8.858;2023-07-22T00:30:04;15.50;99.90
23124;DHT22;11731;48.592;8.858;2023-07-22T00:32:31;15.60;99.90
23124;DHT22;11731;48.592;8.858;2023-07-22T00:34:58;15.50;99.90
23124;DHT22;11731;48.592;8.858;2023-07-22T00:37:25;15.50;99.90
23124;DHT22;11731;48.592;8.858;2023-07-22T00:39:52;15.50;99.90
23124;DHT22;11731;48.592;8.858;2023-07-22T00:42:25;15.40;99.90
23124;DHT22;11731;48.592;8.858;2023-07-22T00:44:52;15.30;99.90
23124;DHT22;11731;48.592;8.858;2023-07-22T00:47:21;15.20;99.90
23124;DHT22;11731;48.592;8.858;2023-07-22T00:49:49;15.20;99.90
23124;DHT22;11731;48.592;8.858;2023-07-22T00:52:16;15.20;99.90
23124;DHT22;11731;48.592;8.858;2023-07-22T00:54:43;15.20;99.90
23124;DHT22;11731;48.592;8.858;2023-07-22T00:57:11;15.00;99.90
23124;DHT22;11731;48.592;8.858;2023-07-22T00:59:40;15.10;99.90
23124;DHT22;11731;48.592;8.858;2023-07-22T01:02:07;15.10;99.90
23124;DHT22;11731;48.592;8.858;2023-07-22T01:04:35;14.80;99.90
23124;DHT22;11731;48.592;8.858;2023-07-22T01:07:04;14.70;99.90
23124;DHT22;11731;48.592;8.858;2023-07-22T01:09:35;14.80;99.90
23124;DHT22;11731;48.592;8.858;2023-07-22T01:12:02;14.80;99.90
23124;DHT22;11731;48.592;8.858;2023-07-22T01:14:31;14.80;99.90
23124;DHT22;11731;48.592;8.858;2023-07-22T01:17:01;14.80;99.90
23124;DHT22;11731;48.592;8.858;2023-07-22T01:19:28;14.90;99.90
23124;DHT22;11731;48.592;8.858;2023-07-22T01:21:56;14.90;99.90
23124;DHT22;11731;48.592;8.858;2023-07-22T01:24:27;14.80;99.90
23124;DHT22;11731;48.592;8.858;2023-07-22T01:26:54;14.40;99.90
23124;DHT22;11731;48.592;8.858;2023-07-22T01:29:22;14.30;99.90
23124;DHT22;11731;48.592;8.858;2023-07-22T01:31:52;14.40;99.90
23124;DHT22;11731;48.592;8.858;2023-07-22T01:34:20;14.40;99.90
23124;DHT22;11731;48.592;8.858;2023-07-22T01:36:48;14.30;99.90
23124;DHT22;11731;48.592;8.858;2023-07-22T01:39:16;14.40;99.90
23124;DHT22;11731;48.592;8.858;2023-07-22T01:41:45;14.50;99.90
23124;DHT22;11731;48.592;8.858;2023-07-22T01:44:13;14.40;99.90
23124;DHT22;11731;48.592;8.858;2023-07-22T01:46:40;14.50;99.90
23124;DHT22;11731;48.592;8.858;2023-07-22T01:49:11;14.50;99.90
23124;DHT22;11731;48.592;8.858;2023-07-22T01:51:38;14.60;99.90
23124;DHT22;11731;48.592;8.858;2023-07-22T01:54:05;14.30;99.90
23124;DHT22;11731;48.592;8.858;2023-07-22T01:59:57;14.40;99.90
23124;DHT22;11731;48.592;8.858;2023-07-22T02:02:24;14.40;99.90
23124;DHT22;11731;48.592;8.858;2023-07-22T02:04:51;14.40;99.90
23124;DHT22;11731;48.592;8.858;2023-07-22T02:07:18;14.40;99.90
23124;DHT22;11731;48.592;8.858;2023-07-22T02:09:45;14.50;99.90
23124;DHT22;11731;48.592;8.858;2023-07-22T02:12:13;14.50;99.90
23124;DHT22;11731;48.592;8.858;2023-07-22T02:14:40;14.50;99.90
23124;DHT22;11731;48.592;8.858;2023-07-22T02:17:08;14.40;99.90
23124;DHT22;11731;48.592;8.858;2023-07-22T02:19:36;14.60;99.90
23124;DHT22;11731;48.592;8.858;2023-07-22T02:22:04;14.70;99.90
23124;DHT22;11731;48.592;8.858;2023-07-22T02:24:31;14.50;99.90
23124;DHT22;11731;48.592;8.858;2023-07-22T02:26:59;14.60;99.90
23124;DHT22;11731;48.592;8.858;2023-07-22T02:29:26;14.50;99.90
23124;DHT22;11731;48.592;8.858;2023-07-22T02:31:53;14.40;99.90
23124;DHT22;11731;48.592;8.858;2023-07-22T02:34:21;14.20;99.90
23124;DHT22;11731;48.592;8.858;2023-07-22T02:36:48;14.10;99.90
23124;DHT22;11731;48.592;8.858;2023-07-22T02:39:15;14.10;99.90
23124;DHT22;11731;48.592;8.858;2023-07-22T02:41:42;14.10;99.90
23124;DHT22;11731;48.592;8.858;2023-07-22T02:44:09;14.10;99.90
23124;DHT22;11731;48.592;8.858;2023-07-22T02:46:38;14.00;99.90
23124;DHT22;11731;48.592;8.858;2023-07-22T02:49:05;14.00;99.90
23124;DHT22;11731;48.592;8.858;2023-07-22T02:51:33;14.00;99.90
23124;DHT22;11731;48.592;8.858;2023-07-22T02:54:00;14.10;99.90
23124;DHT22;11731;48.592;8.858;2023-07-22T02:56:32;14.20;99.90
23124;DHT22;11731;48.592;8.858;2023-07-22T02:58:59;14.00;99.90
23124;DHT22;11731;48.592;8.858;2023-07-22T03:01:27;14.00;99.90
23124;DHT22;11731;48.592;8.858;2023-07-22T03:03:55;13.90;99.90
23124;DHT22;11731;48.592;8.858;2023-07-22T03:06:22;13.90;99.90
23124;DHT22;11731;48.592;8.858;2023-07-22T03:08:50;13.80;99.90
23124;DHT22;11731;48.592;8.858;2023-07-22T03:11:19;13.90;99.90
23124;DHT22;11731;48.592;8.858;2023-07-22T03:13:45;13.90;99.90
23124;DHT22;11731;48.592;8.858;2023-07-22T03:16:13;13.80;99.90
23124;DHT22;11731;48.592;8.858;2023-07-22T03:18:40;13.90;99.90
23124;DHT22;11731;48.592;8.858;2023-07-22T03:21:08;14.00;99.90
23124;DHT22;11731;48.592;8.858;2023-07-22T03:23:35;14.00;99.90
23124;DHT22;11731;48.592;8.858;2023-07-22T03:26:05;14.00;99.90
23124;DHT22;11731;48.592;8.858;2023-07-22T03:28:32;13.90;99.90
23124;DHT22;11731;48.592;8.858;2023-07-22T03:30:59;14.00;99.90
23124;DHT22;11731;48.592;8.858;2023-07-22T03:33:26;13.90;99.90
23124;DHT22;11731;48.592;8.858;2023-07-22T03:35:53;13.80;99.90
23124;DHT22;11731;48.592;8.858;2023-07-22T03:38:20;13.80;99.90
23124;DHT22;11731;48.592;8.858;2023-07-22T03:40:47;13.80;99.90
23124;DHT22;11731;48.592;8.858;2023-07-22T03:43:16;13.80;99.90
23124;DHT22;11731;48.592;8.858;2023-07-22T03:45:43;13.70;99.90
23124;DHT22;11731;48.592;8.858;2023-07-22T03:48:09;13.70;99.90
23124;DHT22;11731;48.592;8.858;2023-07-22T03:50:36;13.60;99.90
23124;DHT22;11731;48.592;8.858;2023-07-22T03:53:03;13.60;99.90
23124;DHT22;11731;48.592;8.858;2023-07-22T03:55:31;13.50;99.90
23124;DHT22;11731;48.592;8.858;2023-07-22T03:57:58;13.50;99.90
23124;DHT22;11731;48.592;8.858;2023-07-22T04:00:30;13.60;99.90
23124;DHT22;11731;48.592;8.858;2023-07-22T04:02:57;13.70;99.90
23124;DHT22;11731;48.592;8.858;2023-07-22T04:05:24;13.80;99.90
23124;DHT22;11731;48.592;8.858;2023-07-22T04:07:51;13.80;99.90
23124;DHT22;11731;48.592;8.858;2023-07-22T04:10:18;13.80;99.90
23124;DHT22;11731;48.592;8.858;2023-07-22T04:12:45;13.90;99.90
23124;DHT22;11731;48.592;8.858;2023-07-22T04:15:12;14.00;99.90
23124;DHT22;11731;48.592;8.858;2023-07-22T04:17:46;14.10;99.90
23124;DHT22;11731;48.592;8.858;2023-07-22T04:20:18;14.20;99.90
23124;DHT22;11731;48.592;8.858;2023-07-22T04:22:44;14.20;99.90
23124;DHT22;11731;48.592;8.858;2023-07-22T04:25:11;14.30;99.90
23124;DHT22;11731;48.592;8.858;2023-07-22T04:27:38;14.20;99.90
23124;DHT22;11731;48.592;8.858;2023-07-22T04:30:11;14.10;99.90
23124;DHT22;11731;48.592;8.858;2023-07-22T04:32:52;14.10;99.90
23124;DHT22;11731;48.592;8.858;2023-07-22T04:35:21;14.10;99.90
23124;DHT22;11731;48.592;8.858;2023-07-22T04:37:48;14.30;99.90
23124;DHT22;11731;48.592;8.858;2023-07-22T04:40:14;14.40;99.90
23124;DHT22;11731;48.592;8.858;2023-07-22T04:42:43;14.50;99.90
23124;DHT22;11731;48.592;8.858;2023-07-22T04:45:10;14.40;99.90
23124;DHT22;11731;48.592;8.858;2023-07-22T04:47:38;14.20;99.90
23124;DHT22;11731;48.592;8.858;2023-07-22T04:50:07;14.00;99.90
23124;DHT22;11731;48.592;8.858;2023-07-22T04:52:35;14.30;99.90
23124;DHT22;11731;48.592;8.858;2023-07-22T04:55:02;14.20;99.90
23124;DHT22;11731;48.592;8.858;2023-07-22T04:57:37;14.40;99.90
23124;DHT22;11731;48.592;8.858;2023-07-22T05:00:05;14.50;99.90
23124;DHT22;11731;48.592;8.858;2023-07-22T05:02:34;14.80;99.90
23124;DHT22;11731;48.592;8.858;2023-07-22T05:05:02;14.80;99.90
23124;DHT22;11731;48.592;8.858;2023-07-22T05:07:33;14.80;99.90
23124;DHT22;11731;48.592;8.858;2023-07-22T05:10:03;14.80;99.90
23124;DHT22;11731;48.592;8.858;2023-07-22T05:12:32;14.90;99.90
23124;DHT22;11731;48.592;8.858;2023-07-22T05:15:01;15.00;99.90
23124;DHT22;11731;48.592;8.858;2023-07-22T05:17:32;15.10;99.90
23124;DHT22;11731;48.592;8.858;2023-07-22T05:19:59;15.10;99.90
23124;DHT22;11731;48.592;8.858;2023-07-22T05:22:26;14.90;99.90
23124;DHT22;11731;48.592;8.858;2023-07-22T05:24:56;15.20;99.90
23124;DHT22;11731;48.592;8.858;2023-07-22T05:27:24;14.90;99.90
23124;DHT22;11731;48.592;8.858;2023-07-22T05:29:50;15.10;99.90
23124;DHT22;11731;48.592;8.858;2023-07-22T05:32:20;15.20;99.90
23124;DHT22;11731;48.592;8.858;2023-07-22T05:34:49;15.20;99.90
23124;DHT22;11731;48.592;8.858;2023-07-22T05:37:16;15.30;99.90
23124;DHT22;11731;48.592;8.858;2023-07-22T05:39:46;15.40;99.90
23124;DHT22;11731;48.592;8.858;2023-07-22T05:42:14;15.60;99.90
23124;DHT22;11731;48.592;8.858;2023-07-22T05:44:42;15.60;99.90
23124;DHT22;11731;48.592;8.858;2023-07-22T05:47:09;15.60;99.90
23124;DHT22;11731;48.592;8.858;2023-07-22T05:49:35;15.90;99.90
23124;DHT22;11731;48.592;8.858;2023-07-22T05:52:06;15.90;99.90
23124;DHT22;11731;48.592;8.858;2023-07-22T05:54:33;16.10;99.90
23124;DHT22;11731;48.592;8.858;2023-07-22T05:57:00;16.10;99.90
23124;DHT22;11731;48.592;8.858;2023-07-22T05:59:30;16.10;99.90
23124;DHT22;11731;48.592;8.858;2023-07-22T06:01:56;16.10;99.90
23124;DHT22;11731;48.592;8.858;2023-07-22T06:04:24;16.10;99.90
23124;DHT22;11731;48.592;8.858;2023-07-22T06:06:51;16.20;99.90
23124;DHT22;11731;48.592;8.858;2023-07-22T06:09:17;16.70;99.90
23124;DHT22;11731;48.592;8.858;2023-07-22T06:11:45;17.10;99.90
23124;DHT22;11731;48.592;8.858;2023-07-22T06:14:23;17.40;99.90
23124;DHT22;11731;48.592;8.858;2023-07-22T06:16:51;17.40;99.90
23124;DHT22;11731;48.592;8.858;2023-07-22T06:19:21;17.50;99.90
23124;DHT22;11731;48.592;8.858;2023-07-22T06:21:49;17.50;99.90
23124;DHT22;11731;48.592;8.858;2023-07-22T06:24:16;17.70;99.90
23124;DHT22;11731;48.592;8.858;2023-07-22T06:26:43;17.70;99.90
23124;DHT22;11731;48.592;8.858;2023-07-22T06:29:10;17.80;99.90
23124;DHT22;11731;48.592;8.858;2023-07-22T06:31:37;18.00;99.90
23124;DHT22;11731;48.592;8.858;2023-07-22T06:34:08;17.90;99.90
23124;DHT22;11731;48.592;8.858;2023-07-22T06:36:35;17.70;99.90
23124;DHT22;11731;48.592;8.858;2023-07-22T06:39:02;17.80;99.90
23124;DHT22;11731;48.592;8.858;2023-07-22T06:41:29;17.90;99.90
23124;DHT22;11731;48.592;8.858;2023-07-22T06:43:56;18.30;99.90
23124;DHT22;11731;48.592;8.858;2023-07-22T06:46:23;18.60;99.90
23124;DHT22;11731;48.592;8.858;2023-07-22T06:48:50;18.80;99.90
23124;DHT22;11731;48.592;8.858;2023-07-22T06:51:18;19.20;99.90
23124;DHT22;11731;48.592;8.858;2023-07-22T06:53:47;19.20;99.90
23124;DHT22;11731;48.592;8.858;2023-07-22T06:56:14;19.40;99.90
23124;DHT22;11731;48.592;8.858;2023-07-22T06:58:57;19.60;99.90
23124;DHT22;11731;48.592;8.858;2023-07-22T07:01:35;19.80;99.90
23124;DHT22;11731;48.592;8.858;2023-07-22T07:04:02;19.80;99.90
23124;DHT22;11731;48.592;8.858;2023-07-22T07:06:39;20.20;99.90
23124;DHT22;11731;48.592;8.858;2023-07-22T07:09:06;20.60;99.90
23124;DHT22;11731;48.592;8.858;2023-07-22T07:11:51;20.80;99.90
23124;DHT22;11731;48.592;8.858;2023-07-22T07:14:32;20.80;99.90
23124;DHT22;11731;48.592;8.858;2023-07-22T07:16:59;20.60;99.90
23124;DHT22;11731;48.592;8.858;2023-07-22T07:19:27;20.50;99.90
23124;DHT22;11731;48.592;8.858;2023-07-22T07:21:55;20.80;99.90
23124;DHT22;11731;48.592;8.858;2023-07-22T07:24:22;21.10;99.90
23124;DHT22;11731;48.592;8.858;2023-07-22T07:26:49;21.40;99.90
23124;DHT22;11731;48.592;8.858;2023-07-22T07:29:16;21.60;99.90
23124;DHT22;11731;48.592;8.858;2023-07-22T07:31:43;21.80;99.90
23124;DHT22;11731;48.592;8.858;2023-07-22T07:34:10;21.70;99.90
23124;DHT22;11731;48.592;8.858;2023-07-22T07:36:37;21.50;99.90
23124;DHT22;11731;48.592;8.858;2023-07-22T07:39:05;21.20;99.90
23124;DHT22;11731;48.592;8.858;2023-07-22T07:41:33;21.40;99.90
23124;DHT22;11731;48.592;8.858;2023-07-22T07:44:00;21.50;99.90
23124;DHT22;11731;48.592;8.858;2023-07-22T07:46:28;21.50;99.90
23124;DHT22;11731;48.592;8.858;2023-07-22T07:48:56;21.80;99.90
23124;DHT22;11731;48.592;8.858;2023-07-22T07:51:25;22.00;99.90
23124;DHT22;11731;48.592;8.858;2023-07-22T07:53:56;21.90;99.90
23124;DHT22;11731;48.592;8.858;2023-07-22T07:56:25;22.20;99.90
23124;DHT22;11731;48.592;8.858;2023-07-22T07:58:53;22.40;99.90
23124;DHT22;11731;48.592;8.858;2023-07-22T08:01:20;22.40;99.90
23124;DHT22;11731;48.592;8.858;2023-07-22T08:03:47;22.40;99.90
23124;DHT22;11731;48.592;8.858;2023-07-22T08:06:14;22.80;99.90
23124;DHT22;11731;48.592;8.858;2023-07-22T08:08:41;23.00;99.90
23124;DHT22;11731;48.592;8.858;2023-07-22T08:11:10;22.70;99.90
23124;DHT22;11731;48.592;8.858;2023-07-22T08:13:41;22.60;99.90
23124;DHT22;11731;48.592;8.858;2023-07-22T08:16:10;22.30;99.60
23124;DHT22;11731;48.592;8.858;2023-07-22T08:18:37;21.90;96.70
23124;DHT22;11731;48.592;8.858;2023-07-22T08:21:06;21.50;95.80
23124;DHT22;11731;48.592;8.858;2023-07-22T08:23:34;21.50;95.60
23124;DHT22;11731;48.592;8.858;2023-07-22T08:26:01;21.80;95.00
23124;DHT22;11731;48.592;8.858;2023-07-22T08:28:29;22.10;96.80
23124;DHT22;11731;48.592;8.858;2023-07-22T08:30:58;22.40;95.70
23124;DHT22;11731;48.592;8.858;2023-07-22T08:33:26;22.80;94.20
23124;DHT22;11731;48.592;8.858;2023-07-22T08:35:53;22.90;93.00
23124;DHT22;11731;48.592;8.858;2023-07-22T08:38:20;23.20;91.30
23124;DHT22;11731;48.592;8.858;2023-07-22T08:40:49;23.10;91.20
23124;DHT22;11731;48.592;8.858;2023-07-22T08:43:20;23.30;91.90
23124;DHT22;11731;48.592;8.858;2023-07-22T08:45:52;23.40;92.10
23124;DHT22;11731;48.592;8.858;2023-07-22T08:48:26;23.20;91.60
23124;DHT22;11731;48.592;8.858;2023-07-22T08:51:02;23.10;92.80
23124;DHT22;11731;48.592;8.858;2023-07-22T08:53:30;23.10;93.20
23124;DHT22;11731;48.592;8.858;2023-07-22T08:55:58;23.30;92.70
23124;DHT22;11731;48.592;8.858;2023-07-22T08:58:26;23.30;93.00
23124;DHT22;11731;48.592;8.858;2023-07-22T09:00:54;23.20;92.70
23124;DHT22;11731;48.592;8.858;2023-07-22T09:03:24;23.40;92.50
23124;DHT22;11731;48.592;8.858;2023-07-22T09:05:51;23.70;92.80
23124;DHT22;11731;48.592;8.858;2023-07-22T09:08:18;24.30;92.50
23124;DHT22;11731;48.592;8.858;2023-07-22T09:10:45;24.30;91.60
23124;DHT22;11731;48.592;8.858;2023-07-22T09:13:13;24.00;91.80
23124;DHT22;11731;48.592;8.858;2023-07-22T09:15:41;23.40;92.30
23124;DHT22;11731;48.592;8.858;2023-07-22T09:18:07;23.40;92.00
23124;DHT22;11731;48.592;8.858;2023-07-22T09:20:36;23.30;92.50
23124;DHT22;11731;48.592;8.858;2023-07-22T09:23:03;23.30;92.20
23124;DHT22;11731;48.592;8.858;2023-07-22T09:25:49;23.60;92.60
23124;DHT22;11731;48.592;8.858;2023-07-22T09:28:16;23.60;91.70
23124;DHT22;11731;48.592;8.858;2023-07-22T09:30:43;23.10;92.10
23124;DHT22;11731;48.592;8.858;2023-07-22T09:33:20;23.20;92.60
23124;DHT22;11731;48.592;8.858;2023-07-22T09:35:49;23.20;92.30
23124;DHT22;11731;48.592;8.858;2023-07-22T09:38:22;23.60;92.10
23124;DHT22;11731;48.592;8.858;2023-07-22T09:40:49;23.70;92.00
23124;DHT22;11731;48.592;8.858;2023-07-22T09:43:16;23.60;92.20
23124;DHT22;11731;48.592;8.858;2023-07-22T09:45:47;23.50;92.80
23124;DHT22;11731;48.592;8.858;2023-07-22T09:48:14;23.50;93.70
23124;DHT22;11731;48.592;8.858;2023-07-22T09:50:41;23.30;93.30
23124;DHT22;11731;48.592;8.858;2023-07-22T09:53:14;23.30;93.50
23124;DHT22;11731;48.592;8.858;2023-07-22T09:55:42;23.40;93.90
23124;DHT22;11731;48.592;8.858;2023-07-22T09:58:10;23.50;93.00
23124;DHT22;11731;48.592;8.858;2023-07-22T10:00:44;23.60;92.10
23124;DHT22;11731;48.592;8.858;2023-07-22T10:03:12;23.60;91.20
23124;DHT22;11731;48.592;8.858;2023-07-22T10:05:42;23.80;90.70
23124;DHT22;11731;48.592;8.858;2023-07-22T10:08:12;24.10;90.80
23124;DHT22;11731;48.592;8.858;2023-07-22T10:10:42;24.60;90.70
23124;DHT22;11731;48.592;8.858;2023-07-22T10:13:10;24.60;90.40
23124;DHT22;11731;48.592;8.858;2023-07-22T10:15:37;24.60;89.20
23124;DHT22;11731;48.592;8.858;2023-07-22T10:18:04;24.30;87.10
23124;DHT22;11731;48.592;8.858;2023-07-22T10:20:31;24.00;88.30
23124;DHT22;11731;48.592;8.858;2023-07-22T10:23:01;24.30;89.70
23124;DHT22;11731;48.592;8.858;2023-07-22T10:25:30;24.40;90.60
23124;DHT22;11731;48.592;8.858;2023-07-22T10:27:57;24.30;90.60
23124;DHT22;11731;48.592;8.858;2023-07-22T10:30:24;24.30;90.30
23124;DHT22;11731;48.592;8.858;2023-07-22T10:32:52;24.40;90.30
23124;DHT22;11731;48.592;8.858;2023-07-22T10:35:22;24.80;90.10
23124;DHT22;11731;48.592;8.858;2023-07-22T10:37:52;25.00;90.70
23124;DHT22;11731;48.592;8.858;2023-07-22T10:40:25;24.50;90.50
23124;DHT22;11731;48.592;8.858;2023-07-22T10:42:57;24.30;90.90
23124;DHT22;11731;48.592;8.858;2023-07-22T10:45:25;24.70;90.80
23124;DHT22;11731;48.592;8.858;2023-07-22T10:48:34;24.70;91.80
23124;DHT22;11731;48.592;8.858;2023-07-22T10:51:06;24.30;92.00
23124;DHT22;11731;48.592;8.858;2023-07-22T10:53:50;23.80;92.70
23124;DHT22;11731;48.592;8.858;2023-07-22T11:03:38;23.50;93.00
23124;DHT22;11731;48.592;8.858;2023-07-22T11:06:23;23.90;92.30
23124;DHT22;11731;48.592;8.858;2023-07-22T11:12:22;24.00;91.30
23124;DHT22;11731;48.592;8.858;2023-07-22T11:18:22;24.10;91.70
23124;DHT22;11731;48.592;8.858;2023-07-22T11:20:53;24.80;90.80
23124;DHT22;11731;48.592;8.858;2023-07-22T11:23:22;24.60;90.40
23124;DHT22;11731;48.592;8.858;2023-07-22T11:32:54;24.40;91.60
23124;DHT22;11731;48.592;8.858;2023-07-22T11:42:41;24.50;91.10
23124;DHT22;11731;48.592;8.858;2023-07-22T12:18:49;25.60;88.00
23124;DHT22;11731;48.592;8.858;2023-07-22T12:21:47;25.80;88.20
23124;DHT22;11731;48.592;8.858;2023-07-22T12:34:09;25.80;82.20
23124;DHT22;11731;48.592;8.858;2023-07-22T12:36:36;25.70;84.60
23124;DHT22;11731;48.592;8.858;2023-07-22T12:44:47;27.00;81.80
23124;DHT22;11731;48.592;8.858;2023-07-22T12:47:35;27.40;80.40
23124;DHT22;11731;48.592;8.858;2023-07-22T12:50:05;27.20;81.10
23124;DHT22;11731;48.592;8.858;2023-07-22T12:52:33;27.20;80.40
23124;DHT22;11731;48.592;8.858;2023-07-22T12:55:14;27.00;79.70
23124;DHT22;11731;48.592;8.858;2023-07-22T12:57:41;27.30;79.50
23124;DHT22;11731;48.592;8.858;2023-07-22T13:00:28;26.90;80.80
23124;DHT22;11731;48.592;8.858;2023-07-22T13:03:09;26.60;82.10
23124;DHT22;11731;48.592;8.858;2023-07-22T13:06:09;26.40;80.80
23124;DHT22;11731;48.592;8.858;2023-07-22T13:08:36;26.10;81.70
23124;DHT22;11731;48.592;8.858;2023-07-22T13:11:21;26.60;81.70
23124;DHT22;11731;48.592;8.858;2023-07-22T13:13:48;26.60;82.00
23124;DHT22;11731;48.592;8.858;2023-07-22T13:16:48;26.40;80.80
23124;DHT22;11731;48.592;8.858;2023-07-22T13:19:15;26.50;81.30
23124;DHT22;11731;48.592;8.858;2023-07-22T13:21:45;26.70;79.90
23124;DHT22;11731;48.592;8.858;2023-07-22T13:24:31;26.50;80.00
23124;DHT22;11731;48.592;8.858;2023-07-22T13:26:58;26.20;80.00
23124;DHT22;11731;48.592;8.858;2023-07-22T13:29:46;26.20;81.10
23124;DHT22;11731;48.592;8.858;2023-07-22T13:32:34;26.30;82.10
23124;DHT22;11731;48.592;8.858;2023-07-22T13:35:23;26.30;81.30
23124;DHT22;11731;48.592;8.858;2023-07-22T13:37:51;26.20;82.00
23124;DHT22;11731;48.592;8.858;2023-07-22T13:40:35;26.80;82.10
23124;DHT22;11731;48.592;8.858;2023-07-22T13:43:50;26.80;82.40
23124;DHT22;11731;48.592;8.858;2023-07-22T13:46:42;26.80;82.20
23124;DHT22;11731;48.592;8.858;2023-07-22T13:49:12;27.30;80.50
23124;DHT22;11731;48.592;8.858;2023-07-22T14:01:22;26.10;81.80
23124;DHT22;11731;48.592;8.858;2023-07-22T14:03:49;26.00;81.60
23124;DHT22;11731;48.592;8.858;2023-07-22T14:06:16;26.10;83.10
23124;DHT22;11731;48.592;8.858;2023-07-22T14:08:58;26.60;81.20
23124;DHT22;11731;48.592;8.858;2023-07-22T14:11:56;26.70;80.50
23124;DHT22;11731;48.592;8.858;2023-07-22T14:15:17;27.00;81.50
23124;DHT22;11731;48.592;8.858;2023-07-22T14:17:37;26.90;80.10
23124;DHT22;11731;48.592;8.858;2023-07-22T14:20:05;26.80;82.00
23124;DHT22;11731;48.592;8.858;2023-07-22T14:22:32;27.20;82.30
23124;DHT22;11731;48.592;8.858;2023-07-22T14:24:59;26.90;81.10
23124;DHT22;11731;48.592;8.858;2023-07-22T14:27:59;26.80;81.90
23124;DHT22;11731;48.592;8.858;2023-07-22T14:30:48;26.60;80.00
23124;DHT22;11731;48.592;8.858;2023-07-22T14:36:52;27.10;81.40
23124;DHT22;11731;48.592;8.858;2023-07-22T14:39:19;27.00;79.80
23124;DHT22;11731;48.592;8.858;2023-07-22T14:45:03;27.00;81.10
23124;DHT22;11731;48.592;8.858;2023-07-22T14:47:36;26.80;81.60
23124;DHT22;11731;48.592;8.858;2023-07-22T14:53:58;26.50;80.20
23124;DHT22;11731;48.592;8.858;2023-07-22T14:56:40;26.40;82.10
23124;DHT22;11731;48.592;8.858;2023-07-22T14:59:49;26.50;81.00
23124;DHT22;11731;48.592;8.858;2023-07-22T15:02:40;26.70;81.50
23124;DHT22;11731;48.592;8.858;2023-07-22T15:05:07;27.20;80.10
23124;DHT22;11731;48.592;8.858;2023-07-22T15:07:34;27.30;79.20
23124;DHT22;11731;48.592;8.858;2023-07-22T15:10:17;27.50;79.00
23124;DHT22;11731;48.592;8.858;2023-07-22T15:12:44;27.90;75.90
23124;DHT22;11731;48.592;8.858;2023-07-22T15:15:12;27.40;76.50
23124;DHT22;11731;48.592;8.858;2023-07-22T15:17:39;27.10;77.90
23124;DHT22;11731;48.592;8.858;2023-07-22T15:20:07;26.90;77.90
23124;DHT22;11731;48.592;8.858;2023-07-22T15:22:34;26.80;78.30
23124;DHT22;11731;48.592;8.858;2023-07-22T15:25:04;26.50;78.70
23124;DHT22;11731;48.592;8.858;2023-07-22T15:31:03;25.90;80.70
23124;DHT22;11731;48.592;8.858;2023-07-22T15:40:34;26.50;79.30
23124;DHT22;11731;48.592;8.858;2023-07-22T15:43:02;26.80;78.80
23124;DHT22;11731;48.592;8.858;2023-07-22T15:45:29;26.70;76.60
23124;DHT22;11731;48.592;8.858;2023-07-22T15:48:00;26.50;75.40
23124;DHT22;11731;48.592;8.858;2023-07-22T15:53:52;26.20;76.90
23124;DHT22;11731;48.592;8.858;2023-07-22T15:56:33;26.30;77.60
23124;DHT22;11731;48.592;8.858;2023-07-22T15:59:00;26.40;75.50
23124;DHT22;11731;48.592;8.858;2023-07-22T16:01:27;26.10;74.70
23124;DHT22;11731;48.592;8.858;2023-07-22T16:03:58;25.90;75.80
23124;DHT22;11731;48.592;8.858;2023-07-22T16:06:40;25.80;76.90
23124;DHT22;11731;48.592;8.858;2023-07-22T16:09:33;26.10;75.20
23124;DHT22;11731;48.592;8.858;2023-07-22T16:12:31;26.50;76.10
23124;DHT22;11731;48.592;8.858;2023-07-22T16:15:03;27.00;75.80
23124;DHT22;11731;48.592;8.858;2023-07-22T16:17:31;26.80;75.10
23124;DHT22;11731;48.592;8.858;2023-07-22T16:19:59;26.50;75.90
23124;DHT22;11731;48.592;8.858;2023-07-22T16:22:26;26.30;76.40
23124;DHT22;11731;48.592;8.858;2023-07-22T16:25:06;26.60;76.90
23124;DHT22;11731;48.592;8.858;2023-07-22T16:27:47;26.70;75.40
23124;DHT22;11731;48.592;8.858;2023-07-22T16:33:24;27.60;74.40
23124;DHT22;11731;48.592;8.858;2023-07-22T16:36:00;27.40;73.60
23124;DHT22;11731;48.592;8.858;2023-07-22T16:38:56;26.90;75.20
23124;DHT22;11731;48.592;8.858;2023-07-22T16:41:55;26.90;76.10
23124;DHT22;11731;48.592;8.858;2023-07-22T16:44:37;26.80;76.60
23124;DHT22;11731;48.592;8.858;2023-07-22T16:47:22;27.30;75.80
23124;DHT22;11731;48.592;8.858;2023-07-22T16:49:49;27.70;73.40
23124;DHT22;11731;48.592;8.858;2023-07-22T16:55:25;27.30;75.10
23124;DHT22;11731;48.592;8.858;2023-07-22T17:01:42;27.50;73.90
23124;DHT22;11731;48.592;8.858;2023-07-22T17:04:12;27.30;73.90
23124;DHT22;11731;48.592;8.858;2023-07-22T17:06:40;27.40;74.20
23124;DHT22;11731;48.592;8.858;2023-07-22T17:16:00;27.40;75.10
23124;DHT22;11731;48.592;8.858;2023-07-22T17:18:50;26.80;74.80
23124;DHT22;11731;48.592;8.858;2023-07-22T17:21:18;26.60;75.60
23124;DHT22;11731;48.592;8.858;2023-07-22T17:23:53;26.70;76.80
23124;DHT22;11731;48.592;8.858;2023-07-22T17:26:34;26.50;75.70
23124;DHT22;11731;48.592;8.858;2023-07-22T17:29:01;26.30;77.80
23124;DHT22;11731;48.592;8.858;2023-07-22T17:31:29;26.40;77.90
23124;DHT22;11731;48.592;8.858;2023-07-22T17:33:56;26.80;77.10
23124;DHT22;11731;48.592;8.858;2023-07-22T17:36:23;27.50;76.20
23124;DHT22;11731;48.592;8.858;2023-07-22T17:38:49;28.00;74.10
23124;DHT22;11731;48.592;8.858;2023-07-22T17:41:16;28.60;73.90
23124;DHT22;11731;48.592;8.858;2023-07-22T17:43:43;29.00;72.70
23124;DHT22;11731;48.592;8.858;2023-07-22T17:46:12;29.30;72.40
23124;DHT22;11731;48.592;8.858;2023-07-22T17:48:41;30.20;69.40
23124;DHT22;11731;48.592;8.858;2023-07-22T17:51:11;29.80;70.70
23124;DHT22;11731;48.592;8.858;2023-07-22T17:53:38;30.30;69.00
23124;DHT22;11731;48.592;8.858;2023-07-22T17:56:31;30.00;70.10
23124;DHT22;11731;48.592;8.858;2023-07-22T17:59:01;30.30;69.30
23124;DHT22;11731;48.592;8.858;2023-07-22T18:01:27;30.10;70.10
23124;DHT22;11731;48.592;8.858;2023-07-22T18:04:04;30.00;70.40